createdAt,value
2023-01-25T00:01:05.735Z,1.32
2023-01-25T00:03:33.895Z,1.41
2023-01-25T00:06:02.523Z,1.64
2023-01-25T00:08:30.674Z,1.70
2023-01-25T00:10:58.871Z,1.60
2023-01-25T00:13:27.464Z,1.64
2023-01-25T00:16:02.784Z,1.62
2023-01-25T00:18:31.263Z,1.49
2023-01-25T00:20:59.704Z,1.55
2023-01-25T00:23:27.862Z,1.60
2023-01-25T00:25:58.898Z,1.64
2023-01-25T00:28:27.280Z,1.61
2023-01-25T00:31:00.597Z,1.66
2023-01-25T00:33:41.911Z,1.53
2023-01-25T00:36:33.894Z,1.45
2023-01-25T00:39:02.351Z,1.53
2023-01-25T00:41:30.552Z,1.58
2023-01-25T00:43:59.252Z,1.69
2023-01-25T00:46:28.778Z,1.68
2023-01-25T00:48:57.773Z,1.64
2023-01-25T00:51:26.390Z,1.64
2023-01-25T00:53:54.620Z,1.57
2023-01-25T00:56:22.759Z,1.60
2023-01-25T00:58:50.832Z,1.60
2023-01-25T01:01:19.007Z,1.47
2023-01-25T01:03:48.477Z,1.39
2023-01-25T01:06:16.646Z,1.46
2023-01-25T01:08:44.606Z,1.36
2023-01-25T01:11:13.912Z,1.60
2023-01-25T01:13:43.009Z,1.60
2023-01-25T01:16:13.459Z,1.47
2023-01-25T01:18:44.346Z,1.32
2023-01-25T01:21:15.434Z,1.35
2023-01-25T01:23:43.574Z,1.37
2023-01-25T01:26:19.605Z,1.13
2023-01-25T01:28:48.154Z,1.28
2023-01-25T01:31:18.057Z,1.20
2023-01-25T01:33:50.104Z,1.29
2023-01-25T01:36:22.228Z,1.43
2023-01-25T01:38:50.843Z,1.38
2023-01-25T01:41:20.235Z,1.45
2023-01-25T01:43:49.742Z,1.58
2023-01-25T01:46:23.470Z,1.52
2023-01-25T01:48:57.005Z,1.59
2023-01-25T01:51:35.411Z,1.58
2023-01-25T01:54:08.544Z,1.62
2023-01-25T01:56:44.295Z,1.62
2023-01-25T01:59:13.228Z,1.64
2023-01-25T02:01:42.769Z,1.69
2023-01-25T02:04:10.931Z,1.74
2023-01-25T02:06:48.444Z,1.73
2023-01-25T02:09:19.422Z,1.68
2023-01-25T02:11:49.055Z,1.70
2023-01-25T02:14:18.573Z,1.63
2023-01-25T02:16:48.143Z,1.54
2023-01-25T02:19:26.583Z,1.65
2023-01-25T02:21:59.422Z,1.69
2023-01-25T02:24:32.344Z,1.64
2023-01-25T02:27:01.867Z,1.68
2023-01-25T02:29:31.378Z,1.68
2023-01-25T02:32:05.778Z,1.76
2023-01-25T02:34:33.967Z,1.80
2023-01-25T02:37:02.122Z,1.74
2023-01-25T02:39:30.930Z,1.72
2023-01-25T02:41:59.011Z,1.74
2023-01-25T02:44:33.548Z,1.79
2023-01-25T02:47:02.563Z,1.82
2023-01-25T02:49:30.690Z,1.71
2023-01-25T02:51:58.770Z,1.80
2023-01-25T02:54:27.788Z,1.74
2023-01-25T02:56:56.229Z,1.80
2023-01-25T02:59:24.496Z,1.71
2023-01-25T03:01:54.043Z,1.65
2023-01-25T03:04:22.172Z,1.70
2023-01-25T03:06:50.541Z,1.74
2023-01-25T03:09:18.546Z,1.70
2023-01-25T03:11:46.736Z,1.66
2023-01-25T03:14:14.997Z,1.70
2023-01-25T03:16:43.124Z,1.48
2023-01-25T03:19:12.521Z,1.49
2023-01-25T03:21:42.176Z,1.62
2023-01-25T03:24:11.741Z,1.75
2023-01-25T03:26:53.768Z,1.72
2023-01-25T03:29:21.876Z,1.63
2023-01-25T03:31:50.003Z,1.72
2023-01-25T03:34:19.777Z,1.75
2023-01-25T03:36:47.958Z,1.77
2023-01-25T03:39:16.913Z,1.75
2023-01-25T03:41:45.049Z,1.76
2023-01-25T03:44:13.556Z,1.78
2023-01-25T03:46:42.456Z,1.85
2023-01-25T03:49:10.955Z,1.77
2023-01-25T03:51:40.700Z,1.77
2023-01-25T03:54:10.293Z,1.83
2023-01-25T03:56:38.715Z,1.83
2023-01-25T03:59:07.181Z,1.79
2023-01-25T04:01:35.377Z,1.68
2023-01-25T04:04:03.501Z,1.65
2023-01-25T04:06:31.821Z,1.58
2023-01-25T04:09:01.443Z,1.56
2023-01-25T04:11:29.570Z,1.55
2023-01-25T04:13:57.715Z,1.62
2023-01-25T04:16:25.931Z,1.65
2023-01-25T04:18:54.200Z,1.71
2023-01-25T04:21:22.336Z,1.75
2023-01-25T04:23:50.738Z,1.65
2023-01-25T04:26:20.437Z,1.66
2023-01-25T04:28:48.560Z,1.63
2023-01-25T04:31:16.815Z,1.66
2023-01-25T04:33:44.981Z,1.70
2023-01-25T04:36:13.137Z,1.66
2023-01-25T04:38:42.303Z,1.68
2023-01-25T04:41:10.929Z,1.50
2023-01-25T04:43:40.656Z,1.43
2023-01-25T04:46:10.189Z,1.47
2023-01-25T04:48:38.364Z,1.48
2023-01-25T04:51:06.713Z,1.39
2023-01-25T04:53:34.801Z,1.35
2023-01-25T04:56:02.975Z,1.26
2023-01-25T04:58:30.932Z,1.39
2023-01-25T05:01:03.064Z,1.38
2023-01-25T05:03:31.533Z,1.35
2023-01-25T05:05:59.615Z,1.26
2023-01-25T05:08:27.975Z,1.21
2023-01-25T05:10:56.100Z,1.29
2023-01-25T05:13:24.252Z,1.49
2023-01-25T05:15:52.462Z,1.50
2023-01-25T05:18:21.990Z,1.50
2023-01-25T05:20:54.821Z,1.50
2023-01-25T05:23:22.991Z,1.44
2023-01-25T05:26:08.395Z,1.45
2023-01-25T05:28:36.457Z,1.49
2023-01-25T05:31:05.571Z,1.45
2023-01-25T05:33:35.196Z,1.46
2023-01-25T05:36:03.360Z,1.48
2023-01-25T05:38:31.606Z,1.48
2023-01-25T05:41:00.166Z,1.42
2023-01-25T05:43:28.358Z,1.38
2023-01-25T05:45:56.510Z,1.48
2023-01-25T05:48:25.241Z,1.37
2023-01-25T05:50:58.442Z,1.27
2023-01-25T05:53:27.022Z,1.46
2023-01-25T05:55:55.518Z,1.52
2023-01-25T05:58:23.732Z,1.48
2023-01-25T06:00:51.765Z,1.54
2023-01-25T06:03:20.200Z,1.50
2023-01-25T06:05:48.367Z,1.39
2023-01-25T06:08:17.947Z,1.31
2023-01-25T06:10:46.203Z,1.29
2023-01-25T06:13:14.530Z,1.42
2023-01-25T06:15:43.081Z,1.56
2023-01-25T06:18:11.165Z,1.63
2023-01-25T06:20:40.065Z,1.63
2023-01-25T06:23:08.214Z,1.58
2023-01-25T06:25:37.900Z,1.63
2023-01-25T06:28:06.779Z,1.60
2023-01-25T06:30:37.637Z,1.57
2023-01-25T06:33:06.115Z,1.38
2023-01-25T06:35:34.997Z,1.41
2023-01-25T06:38:03.123Z,1.35
2023-01-25T06:40:31.274Z,1.33
2023-01-25T06:43:07.787Z,1.28
2023-01-25T06:45:35.881Z,1.11
2023-01-25T06:48:04.064Z,1.20
2023-01-25T06:50:32.191Z,1.23
2023-01-25T06:53:00.548Z,1.43
2023-01-25T06:55:28.891Z,1.67
2023-01-25T06:58:02.254Z,1.73
2023-01-25T07:00:31.822Z,1.44
2023-01-25T07:02:59.983Z,1.39
2023-01-25T07:05:28.170Z,1.53
2023-01-25T07:07:56.255Z,1.63
2023-01-25T07:10:24.715Z,1.69
2023-01-25T07:12:54.214Z,1.70
2023-01-25T07:15:22.525Z,1.50
2023-01-25T07:17:52.104Z,1.65
2023-01-25T07:20:20.277Z,1.62
2023-01-25T07:22:48.351Z,1.66
2023-01-25T07:25:17.622Z,1.88
2023-01-25T07:27:46.103Z,1.92
2023-01-25T07:30:15.975Z,1.96
2023-01-25T07:32:44.023Z,1.78
2023-01-25T07:35:13.530Z,1.76
2023-01-25T07:37:42.007Z,1.81
2023-01-25T07:40:13.604Z,1.82
2023-01-25T07:42:42.541Z,1.74
2023-01-25T07:45:12.259Z,1.96
2023-01-25T07:47:41.324Z,1.73
2023-01-25T07:50:10.933Z,1.91
2023-01-25T07:52:41.871Z,1.76
2023-01-25T07:55:11.257Z,1.82
2023-01-25T07:57:39.765Z,1.95
2023-01-25T08:00:11.467Z,2.05
2023-01-25T08:02:39.819Z,2.01
2023-01-25T08:05:08.773Z,1.92
2023-01-25T08:07:37.044Z,1.65
2023-01-25T08:10:08.375Z,1.84
2023-01-25T08:12:36.725Z,1.99
2023-01-25T08:15:05.985Z,2.05
2023-01-25T08:17:34.235Z,2.13
2023-01-25T08:20:03.119Z,2.03
2023-01-25T08:22:32.335Z,2.06
2023-01-25T08:25:01.349Z,2.02
2023-01-25T08:27:31.373Z,1.96
2023-01-25T08:29:59.968Z,1.96
2023-01-25T08:32:29.086Z,1.79
2023-01-25T08:34:57.209Z,1.96
2023-01-25T08:37:29.990Z,2.03
2023-01-25T08:40:00.003Z,2.10
2023-01-25T08:42:28.534Z,1.99
2023-01-25T08:44:58.086Z,2.07
2023-01-25T08:47:29.475Z,2.05
2023-01-25T08:49:57.806Z,2.16
2023-01-25T08:52:26.068Z,2.11
2023-01-25T08:54:54.347Z,1.86
2023-01-25T08:57:23.425Z,1.87
2023-01-25T08:59:52.517Z,2.15
2023-01-25T09:02:22.399Z,2.06
2023-01-25T09:04:50.695Z,1.99
2023-01-25T09:07:19.017Z,2.07
2023-01-25T09:09:47.170Z,2.13
2023-01-25T09:12:15.390Z,2.13
2023-01-25T09:14:43.629Z,2.39
2023-01-25T09:17:11.764Z,2.30
2023-01-25T09:19:42.630Z,2.15
2023-01-25T09:22:10.885Z,2.46
2023-01-25T09:24:39.106Z,2.57
2023-01-25T09:27:07.772Z,2.57
2023-01-25T09:29:36.785Z,2.49
2023-01-25T09:32:07.650Z,2.51
2023-01-25T09:34:35.853Z,2.47
2023-01-25T09:37:05.398Z,2.27
2023-01-25T09:39:33.566Z,2.45
2023-01-25T09:42:20.487Z,2.45
2023-01-25T09:45:16.589Z,2.67
2023-01-25T09:47:50.239Z,2.74
2023-01-25T09:50:35.215Z,2.34
2023-01-25T09:53:24.373Z,2.52
2023-01-25T09:55:55.885Z,2.68
2023-01-25T09:58:30.184Z,2.63
2023-01-25T10:01:15.058Z,2.52
2023-01-25T10:03:49.768Z,2.23
2023-01-25T10:06:19.276Z,1.98
2023-01-25T10:09:00.043Z,1.79
2023-01-25T10:11:29.980Z,2.16
2023-01-25T10:13:59.801Z,2.14
2023-01-25T10:16:33.366Z,2.26
2023-01-25T10:19:14.860Z,2.71
2023-01-25T10:21:46.838Z,2.87
2023-01-25T10:24:36.990Z,3.12
2023-01-25T10:27:22.008Z,3.28
2023-01-25T10:29:52.269Z,3.21
2023-01-25T10:32:27.150Z,3.18
2023-01-25T10:34:59.221Z,3.12
2023-01-25T10:37:31.891Z,3.13
2023-01-25T10:40:05.914Z,3.13
2023-01-25T10:42:42.682Z,2.85
2023-01-25T10:45:14.720Z,3.02
2023-01-25T10:47:45.461Z,3.15
2023-01-25T10:50:47.767Z,2.87
2023-01-25T10:53:31.586Z,2.96
2023-01-25T10:56:23.093Z,2.94
2023-01-25T10:58:55.546Z,3.03
2023-01-25T11:01:30.645Z,2.97
2023-01-25T11:04:00.100Z,2.77
2023-01-25T11:06:39.268Z,2.88
2023-01-25T11:09:33.696Z,3.18
2023-01-25T11:12:05.863Z,2.90
2023-01-25T11:14:35.133Z,2.64
2023-01-25T11:17:06.391Z,2.59
2023-01-25T11:19:36.631Z,2.73
2023-01-25T11:22:07.533Z,2.87
2023-01-25T11:24:37.315Z,2.81
2023-01-25T11:27:20.923Z,3.00
2023-01-25T11:30:09.885Z,2.93
2023-01-25T11:32:41.148Z,2.81
2023-01-25T11:35:15.196Z,3.09
2023-01-25T11:38:07.419Z,3.21
2023-01-25T11:40:40.963Z,3.27
2023-01-25T11:43:26.022Z,3.11
2023-01-25T11:46:15.888Z,3.15
2023-01-25T11:49:05.304Z,2.65
2023-01-25T11:51:39.776Z,3.06
2023-01-25T11:54:27.962Z,3.18
2023-01-25T11:57:00.512Z,2.98
2023-01-25T11:59:51.961Z,2.41
2023-01-25T12:03:16.602Z,2.09
2023-01-25T12:05:54.854Z,2.30
2023-01-25T12:08:41.263Z,2.82
2023-01-25T12:11:19.323Z,3.02
2023-01-25T12:13:57.860Z,3.08
2023-01-25T12:16:50.155Z,2.87
2023-01-25T12:19:46.534Z,2.49
2023-01-25T12:22:41.013Z,2.82
2023-01-25T12:25:22.801Z,2.96
2023-01-25T12:28:08.904Z,2.78
2023-01-25T12:30:47.959Z,2.78
2023-01-25T12:33:22.202Z,2.92
2023-01-25T12:35:59.593Z,2.77
2023-01-25T12:38:34.104Z,2.66
2023-01-25T12:41:08.392Z,2.61
2023-01-25T12:43:43.990Z,2.53
2023-01-25T12:46:18.497Z,2.23
2023-01-25T12:48:52.481Z,2.50
2023-01-25T12:51:24.161Z,2.19
2023-01-25T12:53:53.795Z,2.14
2023-01-25T12:56:34.188Z,2.28
2023-01-25T12:59:10.393Z,2.32
2023-01-25T13:01:47.911Z,2.61
2023-01-25T13:04:33.257Z,2.82
2023-01-25T13:07:12.344Z,2.98
2023-01-25T13:09:47.456Z,2.63
2023-01-25T13:12:15.808Z,2.68
2023-01-25T13:14:44.328Z,2.86
2023-01-25T13:17:32.894Z,3.01
2023-01-25T13:20:04.839Z,2.78
2023-01-25T13:23:04.460Z,2.44
2023-01-25T13:25:32.640Z,2.32
2023-01-25T13:28:43.239Z,2.62
2023-01-25T13:31:46.304Z,2.64
2023-01-25T13:35:00.740Z,2.58
2023-01-25T13:37:33.097Z,2.59
2023-01-25T13:40:07.449Z,2.38
2023-01-25T13:42:37.547Z,2.51
2023-01-25T13:45:15.539Z,2.38
2023-01-25T13:47:46.615Z,2.23
2023-01-25T13:50:23.440Z,2.26
2023-01-25T13:53:04.076Z,2.55
2023-01-25T13:55:40.655Z,2.71
2023-01-25T13:58:16.226Z,2.79
2023-01-25T14:00:51.112Z,2.86
2023-01-25T14:03:29.419Z,2.80
2023-01-25T14:06:02.713Z,2.59
2023-01-25T14:08:33.322Z,2.55
2023-01-25T14:11:01.722Z,2.38
2023-01-25T14:13:30.002Z,2.28
2023-01-25T14:16:00.294Z,2.22
2023-01-25T14:18:31.420Z,2.04
2023-01-25T14:21:14.337Z,2.15
2023-01-25T14:23:44.429Z,2.40
2023-01-25T14:26:21.251Z,2.45
2023-01-25T14:28:59.607Z,2.22
2023-01-25T14:31:34.262Z,2.27
2023-01-25T14:34:05.064Z,2.06
2023-01-25T14:36:35.582Z,1.99
2023-01-25T14:39:18.264Z,1.92
2023-01-25T14:42:00.478Z,1.90
2023-01-25T14:44:31.570Z,1.83
2023-01-25T14:47:29.779Z,1.69
2023-01-25T14:50:12.724Z,1.65
2023-01-25T14:52:42.137Z,1.71
2023-01-25T14:55:15.584Z,1.66
2023-01-25T14:57:45.632Z,1.68
2023-01-25T15:00:22.957Z,1.63
2023-01-25T15:02:55.520Z,1.72
2023-01-25T15:05:27.520Z,1.65
2023-01-25T15:07:57.663Z,1.81
2023-01-25T15:10:29.124Z,1.86
2023-01-25T15:13:07.678Z,1.72
2023-01-25T15:15:52.493Z,1.77
2023-01-25T15:18:43.056Z,1.71
2023-01-25T15:21:12.935Z,1.69
2023-01-25T15:23:44.830Z,1.70
2023-01-25T15:26:21.643Z,1.67
2023-01-25T15:28:51.464Z,1.64
2023-01-25T15:31:22.387Z,1.73
2023-01-25T15:33:51.948Z,1.90
2023-01-25T15:36:20.540Z,1.76
2023-01-25T15:38:48.892Z,1.67
2023-01-25T15:41:19.641Z,1.74
2023-01-25T15:43:48.879Z,1.65
2023-01-25T15:46:21.397Z,1.66
2023-01-25T15:48:51.504Z,1.60
2023-01-25T15:51:20.474Z,1.78
2023-01-25T15:53:49.671Z,1.80
2023-01-25T15:56:21.647Z,1.80
2023-01-25T15:58:52.462Z,1.83
2023-01-25T16:01:21.342Z,1.81
2023-01-25T16:03:49.624Z,1.74
2023-01-25T16:06:33.109Z,1.92
2023-01-25T16:09:02.170Z,1.72
2023-01-25T16:11:31.695Z,1.83
2023-01-25T16:13:59.992Z,1.84
2023-01-25T16:16:28.449Z,2.09
2023-01-25T16:18:56.694Z,2.06
2023-01-25T16:21:26.309Z,2.18
2023-01-25T16:23:54.524Z,2.10
2023-01-25T16:26:25.704Z,1.98
2023-01-25T16:28:55.727Z,1.94
2023-01-25T16:31:32.848Z,2.04
2023-01-25T16:34:01.764Z,1.92
2023-01-25T16:36:32.100Z,1.91
2023-01-25T16:39:09.910Z,1.97
2023-01-25T16:41:38.826Z,2.12
2023-01-25T16:44:08.466Z,2.14
2023-01-25T16:46:36.912Z,2.06
2023-01-25T16:49:07.145Z,2.12
2023-01-25T16:51:35.392Z,1.84
2023-01-25T16:54:03.897Z,1.86
2023-01-25T16:56:35.507Z,1.92
2023-01-25T16:59:06.006Z,1.76
2023-01-25T17:01:35.666Z,1.80
2023-01-25T17:04:03.882Z,1.60
2023-01-25T17:06:33.862Z,1.42
2023-01-25T17:09:16.508Z,1.45
2023-01-25T17:11:50.103Z,1.36
2023-01-25T17:14:21.175Z,1.51
2023-01-25T17:16:53.754Z,1.54
2023-01-25T17:19:24.003Z,1.81
2023-01-25T17:21:53.559Z,1.81
2023-01-25T17:24:22.541Z,1.91
2023-01-25T17:26:51.534Z,1.89
2023-01-25T17:29:19.666Z,1.91
2023-01-25T17:31:47.829Z,1.86
2023-01-25T17:34:19.519Z,1.79
2023-01-25T17:36:48.365Z,1.84
2023-01-25T17:39:17.988Z,1.70
2023-01-25T17:41:47.844Z,1.66
2023-01-25T17:44:20.274Z,1.69
2023-01-25T17:46:48.750Z,1.83
2023-01-25T17:49:18.575Z,2.07
2023-01-25T17:51:47.498Z,1.83
2023-01-25T17:54:15.732Z,1.70
2023-01-25T17:56:44.019Z,1.81
2023-01-25T17:59:12.112Z,1.82
2023-01-25T18:01:42.998Z,1.70
2023-01-25T18:04:13.433Z,1.83
2023-01-25T18:06:43.125Z,1.78
2023-01-25T18:09:11.282Z,1.74
2023-01-25T18:11:41.165Z,1.86
2023-01-25T18:14:16.422Z,1.90
2023-01-25T18:16:45.665Z,2.02
2023-01-25T18:19:16.471Z,2.03
2023-01-25T18:21:46.754Z,1.78
2023-01-25T18:24:27.850Z,1.63
2023-01-25T18:27:05.411Z,1.63
2023-01-25T18:29:45.601Z,1.46
2023-01-25T18:32:14.117Z,1.47
2023-01-25T18:34:42.503Z,1.59
2023-01-25T18:37:21.926Z,1.58
2023-01-25T18:39:52.630Z,1.50
2023-01-25T18:42:22.244Z,1.47
2023-01-25T18:44:50.472Z,1.41
2023-01-25T18:47:20.005Z,1.31
2023-01-25T18:49:49.533Z,1.30
2023-01-25T18:52:20.237Z,1.37
2023-01-25T18:54:48.750Z,1.36
2023-01-25T18:57:17.814Z,1.46
2023-01-25T18:59:46.378Z,1.49
2023-01-25T19:02:16.888Z,1.52
2023-01-25T19:04:46.443Z,1.65
2023-01-25T19:07:15.426Z,1.59
2023-01-25T19:09:45.029Z,1.58
2023-01-25T19:12:13.460Z,1.47
2023-01-25T19:14:41.845Z,1.46
2023-01-25T19:17:10.257Z,1.47
2023-01-25T19:19:38.537Z,1.45
2023-01-25T19:22:06.830Z,1.41
2023-01-25T19:24:38.007Z,1.38
2023-01-25T19:27:08.050Z,1.39
2023-01-25T19:29:36.906Z,1.34
2023-01-25T19:32:05.213Z,1.35
2023-01-25T19:34:36.508Z,1.32
2023-01-25T19:37:04.755Z,1.26
2023-01-25T19:39:33.066Z,1.37
2023-01-25T19:42:01.268Z,1.33
2023-01-25T19:44:30.946Z,1.29
2023-01-25T19:46:59.229Z,1.24
2023-01-25T19:49:27.813Z,1.25
2023-01-25T19:51:56.020Z,1.23
2023-01-25T19:54:24.569Z,1.31
2023-01-25T19:56:53.263Z,1.33
2023-01-25T19:59:25.821Z,1.31
2023-01-25T20:01:55.740Z,1.46
2023-01-25T20:04:24.975Z,1.33
2023-01-25T20:06:53.674Z,1.33
2023-01-25T20:09:25.127Z,1.37
2023-01-25T20:11:55.551Z,1.36
2023-01-25T20:14:23.794Z,1.27
2023-01-25T20:16:53.123Z,1.34
2023-01-25T20:19:22.732Z,1.65
2023-01-25T20:21:50.981Z,1.42
2023-01-25T20:24:19.425Z,1.32
2023-01-25T20:26:47.679Z,1.28
2023-01-25T20:29:16.149Z,1.28
2023-01-25T20:31:46.269Z,1.47
2023-01-25T20:34:17.089Z,1.46
2023-01-25T20:36:47.807Z,1.44
2023-01-25T20:39:19.512Z,1.39
2023-01-25T20:41:48.288Z,1.32
2023-01-25T20:44:18.785Z,1.33
2023-01-25T20:46:47.431Z,1.31
2023-01-25T20:49:17.700Z,1.28
2023-01-25T20:51:48.286Z,1.44
2023-01-25T20:54:18.391Z,1.61
2023-01-25T20:56:48.106Z,1.51
2023-01-25T20:59:18.325Z,1.62
2023-01-25T21:01:46.938Z,1.51
2023-01-25T21:04:15.093Z,1.42
2023-01-25T21:06:43.496Z,1.35
2023-01-25T21:09:14.091Z,1.48
2023-01-25T21:11:42.388Z,1.39
2023-01-25T21:14:10.557Z,1.38
2023-01-25T21:16:38.768Z,1.38
2023-01-25T21:19:08.164Z,1.45
2023-01-25T21:21:38.267Z,1.40
2023-01-25T21:24:07.461Z,1.31
2023-01-25T21:26:38.501Z,1.30
2023-01-25T21:29:07.825Z,1.36
2023-01-25T21:31:38.215Z,1.30
2023-01-25T21:34:09.211Z,1.26
2023-01-25T21:36:37.700Z,1.44
2023-01-25T21:39:05.885Z,1.63
2023-01-25T21:41:34.693Z,1.48
2023-01-25T21:44:22.071Z,1.27
2023-01-25T21:47:19.596Z,1.19
2023-01-25T21:49:55.867Z,1.22
2023-01-25T21:52:24.023Z,1.25
2023-01-25T21:54:52.284Z,1.26
2023-01-25T21:57:20.736Z,1.23
2023-01-25T21:59:52.498Z,1.28
2023-01-25T22:02:21.931Z,1.27
2023-01-25T22:04:50.007Z,1.27
2023-01-25T22:07:18.147Z,1.39
2023-01-25T22:09:46.280Z,1.34
2023-01-25T22:12:14.418Z,1.43
2023-01-25T22:14:42.617Z,1.32
2023-01-25T22:17:12.205Z,1.33
2023-01-25T22:19:40.291Z,1.32
2023-01-25T22:22:08.447Z,1.24
2023-01-25T22:24:36.621Z,1.27
2023-01-25T22:27:38.374Z,1.71
2023-01-25T22:30:07.930Z,1.57
2023-01-25T22:32:37.491Z,1.54
2023-01-25T22:35:06.135Z,1.66
2023-01-25T22:37:38.114Z,1.59
2023-01-25T22:40:08.440Z,1.51
2023-01-25T22:42:36.831Z,1.66
2023-01-25T22:45:05.517Z,1.64
2023-01-25T22:47:33.623Z,1.46
2023-01-25T22:50:03.226Z,1.45
2023-01-25T22:52:31.253Z,1.53
2023-01-25T22:54:59.306Z,1.48
2023-01-25T22:57:27.454Z,1.46
2023-01-25T22:59:55.467Z,1.50
2023-01-25T23:02:23.578Z,1.45
2023-01-25T23:04:51.770Z,1.33
2023-01-25T23:07:21.430Z,1.57
2023-01-25T23:09:51.651Z,1.62
2023-01-25T23:12:20.876Z,1.63
2023-01-25T23:14:51.968Z,1.66
2023-01-25T23:17:38.488Z,1.66
2023-01-25T23:20:08.055Z,1.51
2023-01-25T23:22:37.655Z,1.46
2023-01-25T23:25:07.085Z,1.50
2023-01-25T23:27:35.217Z,1.55
2023-01-25T23:30:05.021Z,1.42
2023-01-25T23:32:33.028Z,1.66
2023-01-25T23:35:01.111Z,1.53
2023-01-25T23:37:29.086Z,1.46
2023-01-25T23:39:58.503Z,1.41
2023-01-25T23:42:26.684Z,1.29
2023-01-25T23:44:54.775Z,1.23
2023-01-25T23:47:22.770Z,1.22
2023-01-25T23:49:50.747Z,1.31
2023-01-25T23:52:19.090Z,1.46
2023-01-25T23:54:47.098Z,1.61
2023-01-25T23:57:16.838Z,1.58
2023-01-25T23:59:45.014Z,1.61
